Terminal Aerodrome Forecast
Issued by NWS

Home | Current Version | Previous Version | Graphics & Text | Print | Product List | Glossary On
Versions: 1 2 3 4 5 6 7 8 9 10 11 12 13 14 15 16 17 18 19 20 21 22 23
582
FTUS45 KGGW 212327
TAFOLF
TAF
KOLF 212327Z 2200/2224 12020G28KT P6SM FEW250
     FM220300 VRB20G30KT P6SM VCTS BKN070CB
     FM220600 22007KT P6SM BKN080
     FM221500 24010KT P6SM SCT150=

USA.gov is the U.S. government's official web portal to all federal, state and local government web resources and services.